»·PEaware :: N494SP KCMA-KSNA

N494SP :: KCMA-KSNA

FLIGHT INFORMATION

Flight Status: Arrived
Operator: Privately registered:
United States
More flights under this callsign
Pilot: Arik L. (33213)
Aircraft: CESSNA 172 SKYHAWK
(C172)
More flights by this aircraft type
Origin: KCMA Camarillo
United States
Destination: KSNA John Wayne-Orange Co
United States
More flights between these airports :: More routes between these airports
Route:
File this flight plan on PilotEdge
Remarks:
Altitude:
(Current/Filed)
5,500ft
Speed:
(Current/Filed)
110kts
Departed: 24-Jan-21 06:16 PM
Arrived: 24-Jan-21 06:55 PM
Distance/Time
Traveled:
723nm/0:39
Distance/Time
To Go:
Arrived

Flight Plot

Page will automatically refresh every two minutes.


Map Options




Map Legend


Flown Route
Filed Route
Departure Airport
Arrival Airport
Navaid (VOR, NDB)
Fix

Horizontal Profiles

Position Reports

Time Latitude Longitude Heading Altitude Ground
Speed
24-Jan-21 18:14 34.223460 -118.899021 77 5479ft 117kts
24-Jan-21 18:16 34.232310 -118.851722 77 5490ft 116kts
24-Jan-21 18:16 34.238034 -118.821272 77 5496ft 108kts
24-Jan-21 18:17 34.244668 -118.786074 77 5501ft 107kts
24-Jan-21 18:18 34.251404 -118.750287 77 5501ft 112kts
24-Jan-21 18:19 34.257265 -118.712972 81 5497ft 114kts
24-Jan-21 18:20 34.261372 -118.674455 82 5499ft 116kts
24-Jan-21 18:21 34.262369 -118.636076 135 5496ft 116kts
24-Jan-21 18:22 34.235329 -118.615567 151 5501ft 115kts
24-Jan-21 18:23 34.207014 -118.597509 155 5499ft 115kts
24-Jan-21 18:24 34.177184 -118.582890 160 5500ft 115kts
24-Jan-21 18:25 34.147830 -118.567427 156 5499ft 115kts
24-Jan-21 18:26 34.120281 -118.549922 173 5495ft 110kts
24-Jan-21 18:27 34.094724 -118.559711 153 5506ft 111kts
24-Jan-21 18:28 34.068868 -118.538541 139 5497ft 112kts
24-Jan-21 18:29 34.046130 -118.511674 135 5498ft 115kts
24-Jan-21 18:31 34.019790 -118.479238 135 5499ft 116kts
24-Jan-21 18:31 33.998438 -118.460006 153 5500ft 115kts
24-Jan-21 18:32 33.968609 -118.445942 164 5500ft 115kts
24-Jan-21 18:33 33.938270 -118.433219 154 5499ft 115kts
24-Jan-21 18:34 33.914263 -118.407369 136 5500ft 116kts
24-Jan-21 18:35 33.891263 -118.379975 135 5500ft 116kts
24-Jan-21 18:36 33.868855 -118.353184 135 5500ft 116kts
24-Jan-21 18:37 33.845943 -118.325760 135 5499ft 116kts
24-Jan-21 18:38 33.823779 -118.297754 133 5500ft 116kts
24-Jan-21 18:39 33.801584 -118.269318 134 5499ft 116kts
24-Jan-21 18:40 33.778866 -118.241650 135 5500ft 116kts
24-Jan-21 18:41 33.756032 -118.214266 135 5500ft 116kts
24-Jan-21 18:42 33.733353 -118.187082 135 5500ft 116kts
24-Jan-21 18:43 33.722978 -118.152139 92 5501ft 116kts
24-Jan-21 18:44 33.725134 -118.113351 80 5500ft 116kts
24-Jan-21 18:45 33.729960 -118.075039 82 5499ft 115kts
24-Jan-21 18:46 33.734016 -118.036136 82 5148ft 131kts
24-Jan-21 18:47 33.734621 -117.994107 96 4340ft 124kts
24-Jan-21 18:48 33.730570 -117.955714 97 3525ft 104kts
24-Jan-21 18:49 33.724408 -117.923133 117 2731ft 99kts
24-Jan-21 18:50 33.709701 -117.895098 124 1936ft 99kts
24-Jan-21 18:51 33.705986 -117.866170 56 1161ft 96kts
24-Jan-21 18:52 33.711226 -117.846990 208 620ft 94kts
24-Jan-21 18:53 33.692013 -117.858450 212 358ft 70kts
24-Jan-21 18:54 33.678360 -117.867180 207 51ft 5kts
24-Jan-21 18:55 33.678498 -117.868553 32 50ft 0kts
24-Jan-21 18:56 33.678498 -117.868553 32 50ft 0kts
24-Jan-21 18:57 33.679795 -117.867924 21 46ft 17kts
24-Jan-21 18:58 33.677105 -117.869449 208 52ft 16kts
24-Jan-21 18:59 33.676783 -117.870744 299 53ft 0kts
24-Jan-21 19:00 33.676783 -117.870744 299 53ft 0kts
24-Jan-21 19:01 0.000408 0.013975 359 3ft 0kts
24-Jan-21 19:02 0.000408 0.013975 359 3ft 0kts
24-Jan-21 19:03 0.000408 0.013975 359 3ft 0kts
24-Jan-21 19:04 46.305283 -119.295714 35 390ft 0kts
24-Jan-21 19:05 46.305952 -119.297122 275 391ft 0kts
24-Jan-21 19:06 46.306256 -119.312467 242 600ft 72kts
24-Jan-21 19:07 46.288837 -119.295846 147 1236ft 89kts
24-Jan-21 19:08 46.263678 -119.293946 198 1933ft 97kts

Navigation Log

Ident Type
Flight plan parsing failed, navigation log unavailable